Accueil
METAR-TAF:

METAR-TAF

Aéroports :

Aéroport international de Tokyo-Haneda

Tokyo-Haneda, Japon

latitude: 35-33N, longitude: 139-47E, altitude: 5 m

Observation

Le bulletin a été fait il y a 24 minutes, à 02:00 UTC
Vent 3 kt de est, variant entre nord/nord-est et est/sud-est
Température 27°C
Humidité 54%
Pression 1015 hPa
Visibilité 10 km ou plus
Quelques nuages à une hauteur de 1500 ft
Nuages fragmentés

METAR: RJTT 190200Z 08003KT 030V110 9999 FEW015 BKN/// 27/17 Q1015 NOSIG RMK 1CU015 A2999

Heure: 11:24 (02:24 UTC)

Prévision

Le bulletin a été fait il y a 3 heures et 18 minutes, à 23:06 UTC
Prévision valable du 19 à 00 UTC au 20 à 06 UTC
Vent 12 kt de est/sud-est
Visibilité 10 km ou plus
Quelques nuages à une hauteur de 3000 ft
Evoluant progressivement
du 19 à 15 UTC au 19 à 18 UTC
Vent 12 kt de nord/nord-est

TAF: RJTT 182306Z 1900/2006 12012KT 9999 FEW030 BECMG 1915/1918 02012KT

Observations et prévisions météorologiques de plus de 4000 aéroports (messages METAR et TAF).

Les stations disponibles sont représentées par des disques jaunes et rouges sur la carte.

Passer la souris dessus pour voir le nom de la station.

Cliquer dessus pour voir les observations et prévisions météorologiques.

Pour changer de carte: cliquez sur les boutons verts avec une croix noire pour zoomer, sur le bouton vert avec un tiret pour effectuer un zoom arrière, ou sur les flèches vertes pour les cartes adjacentes.


METAR-TAF: